Phuket, Thailand

2:28 AM ICT on November 01, 2014 (GMT +0700)
Phuket International | Change Station
CLOSE
Current Station
Airport
Location: Phuket,
Elevation: 30 ft
Nearby Weather Stations

Elev 30 ft 8.11 °N, 98.32 °E | Updated 28 minutes ago

Mostly Cloudy
Mostly Cloudy
77 °F
Feels Like 77 °F
N
0
Wind Variable Wind from North

Today
High -- | Low -- °F
--% Chance of Precip.
Yesterday
High -- | Low -- °F
Precip. -- in
6:15 AM 6:05 PM
First Quarter, 58% visible
Pressure 29.80 in
Visibility 5.6 miles
Clouds Few 2000 ft
Mostly Cloudy 30000 ft
Dew Point 75 °F
Humidity 94%
Rainfall 0.00 in
Snow Depth Not available.
UV 0 out of 12
Pollen Not available.
Air Quality Not available.
Flu Activity Not available.
METAR VTSP 311900Z 00000KT 9000 FEW020 BKN300 25/24 Q1009 A2980 NOSIG

More Conditions Fewer Conditions

Pressure 29.80 in
Visibility 5.6 miles
Clouds Few 2000 ft
Mostly Cloudy 30000 ft
Dew Point 75 °F
Humidity 94%
Rainfall 0.00 in
Snow Depth Not available.
UV 0 out of 12
Pollen Not available.
Air Quality Not available.
Flu Activity Not available.
METAR VTSP 311900Z 00000KT 9000 FEW020 BKN300 25/24 Q1009 A2980 NOSIG

More Conditions Fewer Conditions

10-Day Weather Forecast

Almanac

Astronomy

Nov. 01, 2014 Rise Set
Actual Time
Civil Twilight
Nautical Twilight
Astronomical Twilight
Moon
Length of Visible Light
Length of Day
Tomorrow will be .
, % of the Moon is Illuminated

Today's Extremes

Country Highs Country Lows

Community

WunderPhotos

Upload Photos

1,766,699 photos uploaded!

WunderBlogs® & News

Nearby

Air Quality

  Air Quality AQ Index Pollutant
Not available.

Snow Depth

Station Depth Elevation

Earthquake Activity

City Distance Mag. Time & Date
Minimum magnitude displayed is 2.5.

Coastal Water Temperatures

Place Temperature

Nearby Weather Stations